Time;durP1;ratioP1;P1;durP2;ratioP2;P2;SDS_P1;SDS_P2;PMS_P1;PMS_P2;Temp;Humidity;BMP_temperature;BMP_pressure;BME280_temperature;BME280_humidity;BME280_pressure;Samples;Min_cycle;Max_cycle;Signal;HPM_P1;HPM_P2
2021/12/06 00:01:56;;;;;;;4.65;4.18;;;19.50;45.90;;;;;;5118096;28;20020;-88
2021/12/06 00:04:30;;;;;;;5.60;4.60;;;19.50;45.90;;;;;;5115528;28;20368;-90
2021/12/06 00:06:59;;;;;;;5.75;4.30;;;19.40;46.00;;;;;;5117101;28;20038;-89
2021/12/06 00:09:29;;;;;;;6.18;4.53;;;19.40;46.00;;;;;;5115724;28;20380;-90
2021/12/06 00:12:00;;;;;;;6.43;4.70;;;19.40;46.00;;;;;;5116803;28;20081;-86
2021/12/06 00:14:29;;;;;;;5.47;4.38;;;19.30;46.00;;;;;;5116886;28;20027;-87
2021/12/06 00:17:00;;;;;;;6.57;4.25;;;19.30;46.00;;;;;;5116526;28;20027;-88
2021/12/06 00:19:27;;;;;;;5.07;4.15;;;19.30;46.10;;;;;;5116720;28;20073;-87
2021/12/06 00:21:53;;;;;;;5.05;4.18;;;19.30;46.10;;;;;;5116680;28;20032;-88
2021/12/06 00:24:20;;;;;;;5.32;4.30;;;19.20;46.10;;;;;;5115301;28;20411;-87
2021/12/06 00:26:45;;;;;;;5.93;4.35;;;19.20;46.20;;;;;;5115364;28;20028;-86
2021/12/06 00:29:12;;;;;;;6.70;4.60;;;19.20;46.10;;;;;;5116509;28;20084;-87
2021/12/06 00:31:38;;;;;;;5.80;4.75;;;19.20;47.20;;;;;;5116480;28;20385;-88
2021/12/06 00:34:09;;;;;;;7.45;5.25;;;19.10;46.20;;;;;;5116519;28;20365;-88
2021/12/06 00:36:38;;;;;;;5.70;4.47;;;19.10;46.30;;;;;;5116616;28;20073;-88
2021/12/06 00:39:07;;;;;;;6.43;4.60;;;19.10;46.20;;;;;;5116216;28;20454;-87
2021/12/06 00:41:33;;;;;;;6.22;4.65;;;19.10;46.20;;;;;;5116180;28;20023;-87
2021/12/06 00:44:00;;;;;;;5.22;4.57;;;19.00;46.20;;;;;;5116267;28;20030;-87
2021/12/06 00:46:26;;;;;;;5.45;4.88;;;19.00;46.30;;;;;;5116240;28;20043;-87
2021/12/06 00:48:52;;;;;;;7.32;4.78;;;19.00;46.30;;;;;;5116368;28;20059;-86
2021/12/06 00:51:18;;;;;;;5.20;4.50;;;19.00;46.40;;;;;;5116073;28;20051;-88
2021/12/06 00:53:44;;;;;;;5.60;4.50;;;18.90;46.40;;;;;;5116162;28;20110;-86
2021/12/06 00:56:11;;;;;;;5.63;4.63;;;18.90;46.50;;;;;;5115940;28;20041;-88
2021/12/06 00:58:37;;;;;;;6.80;4.88;;;18.90;46.50;;;;;;5116103;28;20019;-87
2021/12/06 01:01:03;;;;;;;7.22;4.55;;;18.90;46.60;;;;;;5115632;28;20374;-86
2021/12/06 01:03:32;;;;;;;6.00;4.68;;;18.80;46.60;;;;;;5115772;28;20462;-85
2021/12/06 01:05:57;;;;;;;5.07;4.57;;;18.80;46.60;;;;;;5115749;28;20070;-85
2021/12/06 01:08:23;;;;;;;5.40;4.65;;;18.80;46.60;;;;;;5115606;28;20027;-86
2021/12/06 01:10:51;;;;;;;6.20;4.60;;;18.80;46.60;;;;;;5114944;28;20030;-86
2021/12/06 01:13:17;;;;;;;6.18;4.82;;;18.80;46.60;;;;;;5115622;28;20481;-88
2021/12/06 01:15:44;;;;;;;5.60;4.85;;;18.80;46.70;;;;;;5115488;28;20103;-86
2021/12/06 01:18:13;;;;;;;6.13;4.88;;;18.70;46.70;;;;;;5115465;28;20079;-90
2021/12/06 01:20:48;;;;;;;6.60;5.05;;;18.70;46.80;;;;;;5115560;28;20020;-89
2021/12/06 01:23:16;;;;;;;5.95;4.95;;;18.70;46.70;;;;;;5115456;28;20019;-87
2021/12/06 01:25:57;;;;;;;6.88;4.80;;;18.60;46.70;;;;;;5115431;28;20019;-88
2021/12/06 01:41:37;;;;;;;5.90;4.97;;;18.50;46.90;;;;;;5115487;28;20093;-87
2021/12/06 01:44:19;;;;;;;5.57;4.90;;;18.50;46.90;;;;;;5114948;28;20015;-87
2021/12/06 01:46:58;;;;;;;6.05;5.18;;;18.50;46.80;;;;;;5113777;28;20056;-87
2021/12/06 01:49:28;;;;;;;5.95;4.97;;;18.50;46.90;;;;;;5114735;28;20034;-86
2021/12/06 01:51:57;;;;;;;5.85;5.20;;;18.40;46.90;;;;;;5114311;28;20030;-86
2021/12/06 01:54:23;;;;;;;5.72;5.00;;;18.40;46.90;;;;;;5114830;28;20024;-86
2021/12/06 01:56:50;;;;;;;5.68;4.80;;;18.40;46.90;;;;;;5114981;28;20111;-87
2021/12/06 01:59:16;;;;;;;6.93;5.07;;;18.40;47.00;;;;;;5114902;28;20024;-89
2021/12/06 02:01:42;;;;;;;5.90;5.30;;;18.30;46.90;;;;;;5114694;28;20015;-85
2021/12/06 02:04:09;;;;;;;6.53;5.05;;;18.30;47.00;;;;;;5114851;28;20026;-87
2021/12/06 02:06:35;;;;;;;5.20;4.70;;;18.30;47.00;;;;;;5114558;28;20078;-88
2021/12/06 02:09:02;;;;;;;5.47;4.90;;;18.30;47.00;;;;;;5114587;28;20032;-84
2021/12/06 02:11:32;;;;;;;7.47;5.15;;;18.30;47.00;;;;;;5114477;28;20031;-88
2021/12/06 02:14:15;;;;;;;6.10;5.35;;;18.30;47.10;;;;;;5114679;28;20026;-89
2021/12/06 02:17:01;;;;;;;6.90;5.00;;;18.20;47.00;;;;;;5114562;28;20032;-88
2021/12/06 02:19:32;;;;;;;5.57;4.80;;;18.20;47.10;;;;;;5114432;28;20076;-89
2021/12/06 02:22:00;;;;;;;6.25;5.18;;;18.20;47.10;;;;;;5114451;28;20022;-91
2021/12/06 02:24:27;;;;;;;6.15;5.20;;;18.20;47.10;;;;;;5114527;28;20417;-88
2021/12/06 02:26:53;;;;;;;6.10;5.25;;;18.10;47.10;;;;;;5114538;28;20048;-86
2021/12/06 02:29:19;;;;;;;6.22;4.82;;;18.10;47.20;;;;;;5114384;28;20020;-86
2021/12/06 02:31:45;;;;;;;5.97;5.07;;;18.10;47.20;;;;;;5114603;28;20045;-88
2021/12/06 02:34:11;;;;;;;6.07;5.05;;;18.10;47.20;;;;;;5114095;28;20112;-86
2021/12/06 02:36:37;;;;;;;7.32;5.60;;;18.10;47.20;;;;;;5114383;28;20051;-86
2021/12/06 02:39:04;;;;;;;6.75;5.72;;;18.00;47.10;;;;;;5113044;28;20073;-87
2021/12/06 02:41:31;;;;;;;6.18;5.30;;;18.00;47.20;;;;;;5114309;28;20023;-85
2021/12/06 02:43:56;;;;;;;6.03;5.05;;;18.00;48.20;;;;;;5114039;28;20377;-88
2021/12/06 02:46:22;;;;;;;7.03;5.70;;;18.00;47.20;;;;;;5113946;28;20024;-88
2021/12/06 02:48:48;;;;;;;6.38;5.75;;;18.00;47.30;;;;;;5114202;28;20098;-88
2021/12/06 02:51:14;;;;;;;6.75;5.68;;;17.90;47.30;;;;;;5114210;28;20374;-86
2021/12/06 02:53:41;;;;;;;6.82;5.40;;;17.90;47.20;;;;;;5114309;28;20030;-88
2021/12/06 02:56:28;;;;;;;6.22;5.63;;;17.90;47.20;;;;;;5113983;28;20020;-86
2021/12/06 02:58:58;;;;;;;6.40;5.63;;;17.90;47.20;;;;;;5114035;28;20380;-87
2021/12/06 03:01:30;;;;;;;6.85;5.93;;;17.90;47.30;;;;;;5114074;28;20039;-87
2021/12/06 03:03:56;;;;;;;6.78;5.85;;;17.90;47.30;;;;;;5113101;28;20493;-89
2021/12/06 03:06:22;;;;;;;6.97;5.75;;;17.80;47.30;;;;;;5114131;28;20039;-88
2021/12/06 03:09:03;;;;;;;6.88;5.68;;;17.80;47.30;;;;;;5114121;28;20016;-86
2021/12/06 03:11:36;;;;;;;7.15;5.93;;;17.80;47.30;;;;;;5113906;28;20030;-88
2021/12/06 03:14:02;;;;;;;;;;;17.80;47.40;;;;;;5112787;28;20031;-85
2021/12/06 03:16:28;;;;;;;6.40;5.68;;;17.70;47.30;;;;;;5113977;28;19911;-89
2021/12/06 03:18:55;;;;;;;7.15;5.90;;;17.70;47.50;;;;;;5113661;28;20030;-89
2021/12/06 03:21:21;;;;;;;6.65;5.95;;;17.70;47.50;;;;;;5114104;28;20545;-87
2021/12/06 03:23:48;;;;;;;7.45;6.10;;;17.70;47.40;;;;;;5112528;28;20020;-88
2021/12/06 03:26:14;;;;;;;6.25;5.65;;;17.70;47.50;;;;;;5113758;28;20016;-86
2021/12/06 03:28:43;;;;;;;7.28;6.15;;;17.60;47.40;;;;;;5113678;28;20023;-87
2021/12/06 03:31:09;;;;;;;8.75;6.50;;;17.60;47.40;;;;;;5113819;28;20029;-87
2021/12/06 03:33:36;;;;;;;7.53;6.18;;;17.60;47.40;;;;;;5114195;28;20035;-90
2021/12/06 03:36:05;;;;;;;7.45;6.45;;;17.60;47.40;;;;;;5117388;28;20019;-87
2021/12/06 03:38:31;;;;;;;7.65;6.13;;;17.60;47.40;;;;;;5117285;28;20058;-89
2021/12/06 03:40:57;;;;;;;7.55;6.10;;;17.60;47.40;;;;;;5117351;28;20016;-89
2021/12/06 03:43:22;;;;;;;7.68;6.47;;;17.60;47.40;;;;;;5117488;28;20366;-87
2021/12/06 03:45:48;;;;;;;7.25;6.47;;;17.50;47.40;;;;;;5117372;28;20020;-90
2021/12/06 03:48:14;;;;;;;7.45;6.40;;;17.50;47.40;;;;;;5117207;28;20043;-87
2021/12/06 03:50:39;;;;;;;8.02;6.88;;;17.50;47.30;;;;;;5117275;28;20065;-88
2021/12/06 03:53:05;;;;;;;7.25;6.47;;;17.50;47.50;;;;;;5117113;28;20503;-85
2021/12/06 03:55:30;;;;;;;7.55;6.65;;;17.50;47.40;;;;;;5116948;28;20404;-88
2021/12/06 03:57:56;;;;;;;8.02;6.47;;;17.50;47.40;;;;;;5117141;28;20473;-85
2021/12/06 04:00:22;;;;;;;7.53;6.03;;;17.50;47.40;;;;;;5117049;28;20032;-86
2021/12/06 04:02:48;;;;;;;7.05;6.15;;;17.40;47.60;;;;;;5117358;28;20062;-87
2021/12/06 04:05:14;;;;;;;7.25;6.35;;;17.40;47.50;;;;;;5116822;28;20024;-86
2021/12/06 04:07:40;;;;;;;6.63;5.93;;;17.40;47.50;;;;;;5116810;28;20578;-85
2021/12/06 04:10:08;;;;;;;7.22;6.30;;;17.40;47.60;;;;;;5116729;28;20031;-87
2021/12/06 04:12:34;;;;;;;7.03;6.25;;;17.40;47.60;;;;;;5116066;28;20062;-85
2021/12/06 04:15:00;;;;;;;8.00;6.78;;;17.40;47.70;;;;;;5116635;28;20031;-86
2021/12/06 04:17:26;;;;;;;8.48;6.50;;;17.30;47.60;;;;;;5116684;28;20031;-87
2021/12/06 04:19:52;;;;;;;7.30;5.82;;;17.30;47.70;;;;;;5116486;28;20036;-89
2021/12/06 04:22:18;;;;;;;6.60;5.90;;;17.30;47.80;;;;;;5116627;28;20027;-89
2021/12/06 04:24:44;;;;;;;6.57;5.82;;;17.30;47.80;;;;;;5116505;28;20036;-90
2021/12/06 04:27:15;;;;;;;7.25;5.85;;;17.30;47.80;;;;;;5116615;28;20073;-89
2021/12/06 04:29:45;;;;;;;6.55;5.80;;;17.30;47.90;;;;;;5116533;28;20027;-84
2021/12/06 04:32:11;;;;;;;7.22;6.25;;;17.30;47.90;;;;;;5116400;28;20016;-88
2021/12/06 04:34:37;;;;;;;8.13;6.90;;;17.20;47.90;;;;;;5116403;28;20024;-87
2021/12/06 04:37:03;;;;;;;7.35;6.15;;;17.20;47.90;;;;;;5116142;28;20384;-87
2021/12/06 04:39:30;;;;;;;7.35;5.90;;;17.20;47.90;;;;;;5116318;28;20503;-86
2021/12/06 04:41:55;;;;;;;7.00;5.85;;;17.20;48.00;;;;;;5114957;28;20462;-88
2021/12/06 04:44:21;;;;;;;6.68;5.93;;;17.20;48.10;;;;;;5116182;28;20031;-89
2021/12/06 04:46:47;;;;;;;7.35;6.28;;;17.20;48.10;;;;;;5114864;28;20044;-89
2021/12/06 04:49:14;;;;;;;7.20;5.95;;;17.10;48.10;;;;;;5116238;28;20050;-89
2021/12/06 04:51:43;;;;;;;7.20;6.10;;;17.10;48.20;;;;;;5116097;28;20114;-84
2021/12/06 04:54:12;;;;;;;8.57;6.13;;;17.10;48.20;;;;;;5115975;28;20030;-88
2021/12/06 04:56:45;;;;;;;7.47;6.43;;;17.10;48.20;;;;;;5115752;28;20031;-86
2021/12/06 04:59:24;;;;;;;7.25;5.72;;;17.00;48.20;;;;;;5115801;28;20035;-89
2021/12/06 05:01:52;;;;;;;5.93;5.25;;;17.00;48.30;;;;;;5115820;28;20106;-88
2021/12/06 05:04:25;;;;;;;6.85;5.70;;;17.00;48.40;;;;;;5115739;28;20557;-88
2021/12/06 05:06:55;;;;;;;6.68;5.82;;;17.10;48.50;;;;;;5115911;28;20027;-86
2021/12/06 05:09:25;;;;;;;7.25;5.75;;;17.00;48.50;;;;;;5115588;28;20040;-85
2021/12/06 05:11:52;;;;;;;7.22;5.97;;;17.00;48.50;;;;;;5115616;28;20030;-89
2021/12/06 05:14:18;;;;;;;6.70;5.80;;;17.00;48.60;;;;;;5115676;28;20095;-88
2021/12/06 05:16:43;;;;;;;6.55;5.80;;;17.00;48.60;;;;;;5115403;28;20398;-87
2021/12/06 05:19:09;;;;;;;6.80;5.57;;;17.00;48.60;;;;;;5115490;28;20027;-88
2021/12/06 05:21:36;;;;;;;6.47;5.57;;;16.90;48.60;;;;;;5115323;28;20020;-86
2021/12/06 05:24:03;;;;;;;6.00;5.40;;;17.00;48.70;;;;;;5115338;28;20024;-86
2021/12/06 05:26:28;;;;;;;6.53;5.43;;;16.90;48.70;;;;;;5115479;28;20481;-89
2021/12/06 05:28:59;;;;;;;6.80;5.65;;;16.90;48.70;;;;;;5115073;28;20039;-85
2021/12/06 05:31:25;;;;;;;6.97;5.53;;;16.90;48.70;;;;;;5115342;28;20469;-85
2021/12/06 05:33:55;;;;;;;6.68;5.35;;;16.90;48.80;;;;;;5115279;28;20047;-85
2021/12/06 05:36:21;;;;;;;6.10;5.50;;;16.90;48.80;;;;;;5115187;28;20015;-85
2021/12/06 05:38:50;;;;;;;7.10;5.65;;;16.90;48.80;;;;;;5115218;28;20031;-86
2021/12/06 05:41:15;;;;;;;5.97;5.38;;;16.80;48.80;;;;;;5114847;28;20141;-90
2021/12/06 05:43:41;;;;;;;6.53;5.50;;;16.80;48.90;;;;;;5115035;28;20098;-89
2021/12/06 05:46:07;;;;;;;7.13;5.85;;;16.80;48.90;;;;;;5115152;28;20094;-88
2021/12/06 05:48:32;;;;;;;6.53;5.43;;;16.80;48.90;;;;;;5114802;28;20044;-85
2021/12/06 05:50:58;;;;;;;6.20;5.60;;;16.80;48.90;;;;;;5114827;28;20035;-90
2021/12/06 05:53:24;;;;;;;7.18;5.78;;;16.80;48.90;;;;;;5113757;28;20080;-85
2021/12/06 05:55:50;;;;;;;6.38;5.22;;;16.80;49.00;;;;;;5114733;28;20097;-88
2021/12/06 05:58:20;;;;;;;6.03;5.43;;;16.80;48.90;;;;;;5114130;28;20115;-87
2021/12/06 06:00:46;;;;;;;7.60;5.53;;;16.80;49.00;;;;;;5114694;28;20023;-86
2021/12/06 06:03:12;;;;;;;6.25;5.57;;;16.70;49.00;;;;;;5114729;28;20028;-84
2021/12/06 06:05:38;;;;;;;6.22;5.63;;;16.70;49.00;;;;;;5114585;28;20035;-85
2021/12/06 06:08:05;;;;;;;6.18;5.35;;;16.70;49.10;;;;;;5114719;28;20096;-86
2021/12/06 06:10:31;;;;;;;6.25;5.43;;;16.70;49.00;;;;;;5114509;28;20021;-87
2021/12/06 06:12:58;;;;;;;7.40;6.07;;;16.70;48.90;;;;;;5114362;28;20027;-86
2021/12/06 06:15:24;;;;;;;7.22;6.18;;;16.70;48.90;;;;;;5114453;28;20035;-87
2021/12/06 06:17:49;;;;;;;6.10;5.50;;;16.70;49.00;;;;;;5114160;28;20020;-89
2021/12/06 06:20:29;;;;;;;7.75;6.07;;;16.80;49.00;;;;;;5114652;28;20015;-88
2021/12/06 06:22:54;;;;;;;6.70;5.88;;;16.80;48.90;;;;;;5114608;28;20389;-87
2021/12/06 06:25:20;;;;;;;6.55;5.60;;;16.90;48.90;;;;;;5114313;28;20023;-86
2021/12/06 06:27:46;;;;;;;6.72;6.03;;;16.90;48.80;;;;;;5114455;28;20024;-88
2021/12/06 06:30:13;;;;;;;7.25;5.60;;;17.00;48.60;;;;;;5114567;28;20092;-86
2021/12/06 06:32:39;;;;;;;6.43;5.20;;;17.10;49.50;;;;;;5114186;28;20529;-85
2021/12/06 06:35:05;;;;;;;7.32;5.38;;;17.30;49.50;;;;;;5114154;28;20020;-87
2021/12/06 06:37:32;;;;;;;6.35;5.60;;;17.40;48.30;;;;;;5114388;28;20089;-86
2021/12/06 06:39:57;;;;;;;6.20;5.47;;;17.60;48.20;;;;;;5114229;28;20381;-88
2021/12/06 06:42:23;;;;;;;6.35;5.47;;;17.70;47.90;;;;;;5114365;28;20072;-87
2021/12/06 06:44:50;;;;;;;6.35;5.65;;;17.90;47.70;;;;;;5114095;28;20058;-88
2021/12/06 06:47:16;;;;;;;6.60;5.22;;;18.10;47.50;;;;;;5113960;28;20075;-87
2021/12/06 06:49:42;;;;;;;7.93;5.97;;;18.20;47.20;;;;;;5113970;28;20497;-87
2021/12/06 06:52:08;;;;;;;6.28;5.50;;;18.40;47.10;;;;;;5114251;28;20024;-89
2021/12/06 06:54:33;;;;;;;6.82;5.63;;;18.60;46.80;;;;;;5113997;28;20414;-88
2021/12/06 06:56:59;;;;;;;6.70;5.93;;;18.80;46.50;;;;;;5113773;28;20028;-87
2021/12/06 06:59:25;;;;;;;6.45;5.40;;;19.00;46.20;;;;;;5113904;28;20023;-84
2021/12/06 07:01:50;;;;;;;6.07;5.47;;;19.20;45.90;;;;;;5113750;28;20036;-88
2021/12/06 07:04:16;;;;;;;6.47;5.47;;;19.40;45.60;;;;;;5123739;28;20024;-85
2021/12/06 07:06:44;;;;;;;7.10;5.65;;;19.50;45.20;;;;;;5129600;28;20051;-85
2021/12/06 07:09:09;;;;;;;8.57;5.70;;;19.70;45.00;;;;;;5130479;28;20051;-85
2021/12/06 07:11:35;;;;;;;7.05;5.47;;;19.80;44.80;;;;;;5133487;28;20032;-85
2021/12/06 07:14:01;;;;;;;7.03;5.35;;;19.90;44.60;;;;;;5131321;28;20102;-83
2021/12/06 07:16:29;;;;;;;7.70;5.90;;;20.10;45.40;;;;;;5130292;28;20030;-86
2021/12/06 07:18:55;;;;;;;8.82;5.20;;;20.20;44.20;;;;;;5123540;28;20059;-85
2021/12/06 07:21:21;;;;;;;7.18;5.90;;;20.20;44.00;;;;;;5118115;28;20385;-89
2021/12/06 07:23:48;;;;;;;6.60;5.22;;;20.40;44.00;;;;;;5118054;28;20026;-86
2021/12/06 07:26:16;;;;;;;7.88;6.07;;;20.40;43.80;;;;;;5116725;28;20027;-87
2021/12/06 07:28:43;;;;;;;8.07;5.72;;;20.50;43.70;;;;;;5117854;28;20039;-87
2021/12/06 07:31:12;;;;;;;7.72;5.80;;;20.50;43.60;;;;;;5118014;28;20015;-91
2021/12/06 07:33:39;;;;;;;10.27;5.85;;;20.50;43.50;;;;;;5117893;28;20028;-88
2021/12/06 07:36:05;;;;;;;9.00;5.82;;;20.60;43.50;;;;;;5117890;28;20026;-89
2021/12/06 07:38:34;;;;;;;6.50;5.80;;;20.60;43.30;;;;;;5117603;28;20024;-87
2021/12/06 07:41:00;;;;;;;7.28;5.80;;;20.60;43.30;;;;;;5117761;28;20012;-88
2021/12/06 07:43:26;;;;;;;6.65;5.60;;;20.60;43.20;;;;;;5117816;28;20023;-89
2021/12/06 07:45:52;;;;;;;7.45;6.05;;;20.70;43.30;;;;;;5117526;28;20024;-89
2021/12/06 07:48:18;;;;;;;9.38;6.53;;;20.70;43.20;;;;;;5117320;28;20093;-87
2021/12/06 07:50:44;;;;;;;6.97;5.72;;;20.70;43.20;;;;;;5117363;28;20020;-90
2021/12/06 07:53:09;;;;;;;7.80;5.85;;;20.70;43.20;;;;;;5117346;28;20039;-88
2021/12/06 07:55:35;;;;;;;6.93;5.70;;;20.70;43.20;;;;;;5117332;28;20084;-85
2021/12/06 07:58:08;;;;;;;7.13;6.20;;;20.70;43.20;;;;;;5117222;28;20046;-89
2021/12/06 08:00:38;;;;;;;7.45;6.00;;;20.60;43.10;;;;;;5117511;28;20464;-87
2021/12/06 08:03:04;;;;;;;8.35;6.28;;;20.70;43.60;;;;;;5117129;28;20041;-87
2021/12/06 08:05:29;;;;;;;6.28;5.68;;;20.60;43.20;;;;;;5117116;28;20489;-89
2021/12/06 08:08:15;;;;;;;7.35;5.90;;;20.60;43.20;;;;;;5117304;28;20528;-88
2021/12/06 08:10:44;;;;;;;8.93;6.10;;;20.60;43.20;;;;;;5116985;28;20412;-87
2021/12/06 08:13:12;;;;;;;8.50;6.43;;;20.60;43.30;;;;;;5116837;28;20032;-86
2021/12/06 08:15:38;;;;;;;8.55;6.63;;;20.60;43.40;;;;;;5117317;28;20110;-92
2021/12/06 08:18:04;;;;;;;8.63;6.57;;;20.60;43.50;;;;;;5115990;28;20015;-90
2021/12/06 08:20:30;;;;;;;10.27;6.88;;;20.50;43.50;;;;;;5116111;28;20018;-87
2021/12/06 08:22:56;;;;;;;10.60;7.68;;;20.60;43.50;;;;;;5116321;28;20024;-84
2021/12/06 08:25:22;;;;;;;14.82;7.63;;;20.50;43.30;;;;;;5115352;28;20058;-86
2021/12/06 08:27:47;;;;;;;12.48;8.27;;;20.50;43.10;;;;;;5116394;28;20026;-85
2021/12/06 08:30:16;;;;;;;11.02;7.13;;;20.50;43.20;;;;;;5115530;28;20023;-84
2021/12/06 08:32:42;;;;;;;11.98;9.68;;;20.50;43.00;;;;;;5116290;28;20490;-86
2021/12/06 08:35:08;;;;;;;11.35;8.00;;;20.50;42.80;;;;;;5116341;28;20027;-85
2021/12/06 08:37:34;;;;;;;11.30;7.70;;;20.50;42.80;;;;;;5116240;28;20513;-86
2021/12/06 08:40:00;;;;;;;9.68;7.78;;;20.50;42.70;;;;;;5116126;28;20051;-87
2021/12/06 08:42:26;;;;;;;8.52;6.95;;;20.50;42.80;;;;;;5115962;28;20020;-85
2021/12/06 08:44:52;;;;;;;12.23;7.72;;;20.50;42.80;;;;;;5115919;28;20031;-87
2021/12/06 08:47:18;;;;;;;10.18;6.97;;;20.50;42.90;;;;;;5115676;28;20100;-86
2021/12/06 08:49:45;;;;;;;9.30;7.20;;;20.50;42.90;;;;;;5115844;28;20031;-87
2021/12/06 08:52:11;;;;;;;7.80;6.50;;;20.50;42.90;;;;;;5114310;28;20503;-87
2021/12/06 08:54:37;;;;;;;10.88;6.50;;;20.50;43.00;;;;;;5114952;28;20023;-87
2021/12/06 08:57:04;;;;;;;9.15;6.38;;;20.50;43.10;;;;;;5115830;28;20035;-86
2021/12/06 08:59:29;;;;;;;8.02;6.20;;;20.50;43.10;;;;;;5115756;28;20427;-86
2021/12/06 09:01:57;;;;;;;9.15;6.20;;;20.50;43.20;;;;;;5114782;28;20020;-87
2021/12/06 09:04:24;;;;;;;7.43;6.25;;;20.50;43.30;;;;;;5114521;28;20072;-86
2021/12/06 09:06:53;;;;;;;8.63;6.47;;;20.60;43.30;;;;;;5115478;28;20028;-87
2021/12/06 09:09:21;;;;;;;7.97;6.13;;;20.60;43.30;;;;;;5115488;28;20124;-86
2021/12/06 09:11:48;;;;;;;6.85;5.85;;;20.60;43.40;;;;;;5114151;28;20019;-87
2021/12/06 09:14:15;;;;;;;7.57;6.28;;;20.60;43.40;;;;;;5115427;28;20106;-86
2021/12/06 09:16:42;;;;;;;10.18;6.07;;;20.60;43.40;;;;;;5115482;28;20031;-87
2021/12/06 09:19:12;;;;;;;8.50;5.93;;;20.70;43.50;;;;;;5115277;28;20024;-86
2021/12/06 09:21:38;;;;;;;11.00;5.85;;;20.70;43.60;;;;;;5115255;28;20035;-86
2021/12/06 09:24:07;;;;;;;7.47;6.05;;;20.70;43.50;;;;;;5115049;28;20456;-86
2021/12/06 09:26:33;;;;;;;7.85;5.60;;;20.70;43.50;;;;;;5115192;28;20055;-86
2021/12/06 09:28:59;;;;;;;8.48;5.88;;;20.70;43.60;;;;;;5115166;28;20059;-86
2021/12/06 09:31:25;;;;;;;6.43;5.75;;;20.70;43.60;;;;;;5114248;28;20103;-86
2021/12/06 09:33:51;;;;;;;8.60;5.93;;;20.70;43.60;;;;;;5114027;28;20031;-86
2021/12/06 09:36:19;;;;;;;6.65;5.95;;;20.80;43.70;;;;;;5115195;28;20177;-86
2021/12/06 09:38:45;;;;;;;7.03;5.57;;;20.80;43.60;;;;;;5114736;28;20346;-87
2021/12/06 09:41:22;;;;;;;7.82;5.60;;;20.80;43.60;;;;;;5113453;28;20106;-86
2021/12/06 09:43:49;;;;;;;8.20;5.88;;;20.90;43.60;;;;;;5114809;28;20512;-86
2021/12/06 09:46:16;;;;;;;6.70;5.50;;;20.80;43.70;;;;;;5113329;28;20019;-85
2021/12/06 09:48:44;;;;;;;8.20;5.80;;;20.90;43.70;;;;;;5114648;28;20019;-86
2021/12/06 09:51:17;;;;;;;8.13;5.35;;;20.90;43.60;;;;;;5114832;28;20034;-86
2021/12/06 09:53:46;;;;;;;8.95;6.05;;;20.90;43.70;;;;;;5113174;28;20024;-86
2021/12/06 09:56:15;;;;;;;6.40;5.47;;;20.90;43.70;;;;;;5113348;28;20076;-86
2021/12/06 09:58:41;;;;;;;8.45;5.95;;;21.00;43.70;;;;;;5114319;28;20032;-86
2021/12/06 10:01:13;;;;;;;8.07;6.13;;;20.90;43.60;;;;;;5114560;28;20032;-86
2021/12/06 10:03:40;;;;;;;6.27;5.53;;;20.90;43.60;;;;;;5114461;28;20015;-86
2021/12/06 10:06:07;;;;;;;7.28;5.72;;;21.00;43.70;;;;;;5114334;28;20388;-90
2021/12/06 10:08:36;;;;;;;6.55;5.22;;;21.00;43.80;;;;;;5104560;28;20023;-87
2021/12/06 10:11:04;;;;;;;8.27;5.80;;;21.00;44.80;;;;;;5105940;28;20054;-90
2021/12/06 10:13:30;;;;;;;8.38;6.05;;;21.00;43.80;;;;;;5114410;28;20500;-88
2021/12/06 10:15:56;;;;;;;7.22;5.90;;;21.00;43.80;;;;;;5114067;28;20027;-87
2021/12/06 10:18:22;;;;;;;7.63;5.80;;;21.00;43.80;;;;;;5093983;28;20039;-86
2021/12/06 10:20:48;;;;;;;9.27;6.30;;;20.90;43.80;;;;;;5093975;28;20023;-86
2021/12/06 10:23:16;;;;;;;11.57;5.38;;;21.00;43.80;;;;;;5093911;28;20111;-86
2021/12/06 10:25:49;;;;;;;8.10;6.13;;;21.00;43.80;;;;;;5092627;28;20422;-86
2021/12/06 10:28:16;;;;;;;9.18;6.20;;;20.90;43.80;;;;;;5094090;28;20027;-86
2021/12/06 10:30:50;;;;;;;7.40;5.93;;;20.90;44.90;;;;;;5093673;28;20024;-86
2021/12/06 10:33:20;;;;;;;9.18;6.15;;;21.00;44.90;;;;;;5093446;28;20028;-86
2021/12/06 10:35:49;;;;;;;7.53;5.40;;;21.00;44.00;;;;;;5093611;28;20020;-86
2021/12/06 10:38:24;;;;;;;9.13;5.93;;;21.00;44.00;;;;;;5093420;28;20032;-87
2021/12/06 10:40:54;;;;;;;8.35;6.00;;;21.00;44.00;;;;;;5092676;28;20032;-86
2021/12/06 10:43:20;;;;;;;9.05;5.72;;;20.90;44.00;;;;;;5094097;28;20457;-87
2021/12/06 10:45:48;;;;;;;7.35;5.93;;;20.90;44.10;;;;;;5097752;28;20052;-90
2021/12/06 10:48:17;;;;;;;9.80;5.70;;;21.00;44.10;;;;;;5080130;28;20079;-86
2021/12/06 10:50:51;;;;;;;7.90;5.85;;;21.00;44.20;;;;;;5097880;28;20474;-86
2021/12/06 10:53:35;;;;;;;7.55;5.90;;;21.00;44.20;;;;;;5097517;28;20036;-88
2021/12/06 10:56:02;;;;;;;9.20;5.47;;;20.90;44.20;;;;;;5096338;28;20412;-87
2021/12/06 10:58:30;;;;;;;7.30;5.72;;;20.90;44.20;;;;;;5100991;28;20457;-87
2021/12/06 11:01:07;;;;;;;8.80;5.70;;;21.00;44.20;;;;;;5118034;28;20024;-89
2021/12/06 11:03:35;;;;;;;8.05;5.68;;;21.00;44.30;;;;;;5117865;28;20534;-89
2021/12/06 11:06:05;;;;;;;8.60;5.70;;;20.90;44.30;;;;;;5116050;28;20138;-87
2021/12/06 11:08:34;;;;;;;8.82;5.55;;;20.90;44.30;;;;;;5116169;28;20024;-87
2021/12/06 11:11:06;;;;;;;7.05;5.93;;;20.90;44.30;;;;;;5117950;28;20041;-87
2021/12/06 11:13:38;;;;;;;8.90;6.05;;;20.80;44.30;;;;;;5116713;28;20028;-87
2021/12/06 11:16:27;;;;;;;9.02;5.95;;;20.90;44.40;;;;;;5117906;28;20027;-86
2021/12/06 11:18:58;;;;;;;9.00;5.88;;;20.90;44.40;;;;;;5117523;28;20031;-86
2021/12/06 11:21:34;;;;;;;9.45;5.88;;;20.90;44.40;;;;;;5117466;28;20062;-86
2021/12/06 11:24:12;;;;;;;10.77;5.75;;;20.90;44.50;;;;;;5117653;28;20028;-86
2021/12/06 11:26:45;;;;;;;7.70;5.47;;;20.90;44.50;;;;;;5115980;28;20023;-87
2021/12/06 11:29:20;;;;;;;7.35;5.10;;;20.80;44.50;;;;;;5116250;28;20106;-88
2021/12/06 11:32:20;;;;;;;7.55;5.20;;;20.80;44.50;;;;;;5116521;28;20051;-87
2021/12/06 11:34:49;;;;;;;7.20;5.57;;;20.80;44.50;;;;;;5084001;28;20480;-87
2021/12/06 11:37:30;;;;;;;7.30;5.50;;;20.80;44.60;;;;;;5115943;28;20024;-89
2021/12/06 11:40:21;;;;;;;7.38;5.38;;;20.80;44.70;;;;;;5116408;28;20023;-89
2021/12/06 11:42:52;;;;;;;8.85;5.80;;;20.80;44.60;;;;;;5116484;28;20051;-91
2021/12/06 11:45:40;;;;;;;7.70;5.90;;;20.80;44.70;;;;;;5116196;28;20046;-88
2021/12/06 11:48:16;;;;;;;9.98;5.78;;;20.80;44.60;;;;;;5115906;28;20055;-87
2021/12/06 11:50:48;;;;;;;8.65;5.80;;;20.70;44.70;;;;;;5115827;28;20038;-89
2021/12/06 11:53:16;;;;;;;10.85;5.75;;;20.70;45.80;;;;;;5117477;28;20106;-89
2021/12/06 11:56:09;;;;;;;8.68;6.10;;;20.70;44.80;;;;;;5116482;28;20051;-89
2021/12/06 11:58:44;;;;;;;7.95;5.60;;;20.80;44.90;;;;;;5109739;28;20035;-90
2021/12/06 12:01:24;;;;;;;8.57;5.50;;;20.70;44.90;;;;;;5117081;28;20084;-91
2021/12/06 12:03:53;;;;;;;8.32;5.10;;;20.70;44.90;;;;;;5116717;28;20020;-89
2021/12/06 12:06:25;;;;;;;7.20;5.50;;;20.70;44.90;;;;;;5116849;28;20030;-89
2021/12/06 12:09:03;;;;;;;10.65;5.47;;;20.70;45.00;;;;;;5116888;28;20149;-89
2021/12/06 12:11:29;;;;;;;8.02;5.57;;;20.70;45.00;;;;;;5115740;28;20403;-87
2021/12/06 12:13:57;;;;;;;8.50;5.47;;;20.70;45.10;;;;;;5115399;28;20023;-87
2021/12/06 12:16:24;;;;;;;6.70;5.35;;;20.70;45.10;;;;;;5115764;28;20119;-87
2021/12/06 12:18:49;;;;;;;7.18;4.80;;;20.70;45.20;;;;;;5116798;28;20031;-88
2021/12/06 12:21:15;;;;;;;8.75;5.18;;;20.70;45.10;;;;;;5116630;28;20030;-86
2021/12/06 12:23:42;;;;;;;9.23;5.50;;;20.70;45.20;;;;;;5116823;28;20020;-86
2021/12/06 12:26:15;;;;;;;7.47;5.00;;;20.70;45.20;;;;;;5115486;28;20015;-84
2021/12/06 12:28:58;;;;;;;;;;;20.70;45.20;;;;;;5117021;28;20016;-88
2021/12/06 12:31:26;;;;;;;12.33;6.17;;;20.70;45.20;;;;;;5116720;28;19910;-91
2021/12/06 12:33:55;;;;;;;9.55;5.20;;;20.70;45.20;;;;;;5116924;28;20256;-86
2021/12/06 12:36:23;;;;;;;10.90;5.70;;;20.70;45.20;;;;;;5116432;28;20114;-87
2021/12/06 12:38:54;;;;;;;8.38;5.53;;;20.70;45.10;;;;;;5116347;28;20537;-89
2021/12/06 12:41:20;;;;;;;11.35;5.47;;;20.80;45.10;;;;;;5116764;28;20032;-91
2021/12/06 12:43:52;;;;;;;7.15;5.70;;;20.80;45.10;;;;;;5116339;28;20020;-90
2021/12/06 12:46:40;;;;;;;8.45;4.72;;;20.80;44.90;;;;;;5116215;28;20477;-86
2021/12/06 12:49:14;;;;;;;12.20;5.40;;;20.90;44.90;;;;;;5115546;28;20031;-85
2021/12/06 12:51:48;;;;;;;8.13;5.63;;;21.00;44.70;;;;;;5115004;28;20489;-86
2021/12/06 12:54:27;;;;;;;7.88;5.00;;;21.00;44.60;;;;;;5097768;28;20477;-87
2021/12/06 12:56:54;;;;;;;7.63;5.65;;;21.10;44.50;;;;;;5115030;28;20038;-88
2021/12/06 12:59:29;;;;;;;8.15;5.63;;;21.20;44.50;;;;;;5116219;28;20162;-85
2021/12/06 13:02:14;;;;;;;8.13;5.72;;;21.30;44.20;;;;;;5115113;28;20019;-86
2021/12/06 13:04:58;;;;;;;7.28;5.28;;;21.30;44.00;;;;;;5115007;28;20106;-89
2021/12/06 13:07:47;;;;;;;8.50;5.43;;;21.40;43.90;;;;;;5113646;28;20032;-89